sensor_id;sensor_type;location;lat;lon;timestamp;temperature;humidity
25550;DHT22;13444;50.562;7.262;2023-09-19T00:01:07;17.60;99.90
25550;DHT22;13444;50.562;7.262;2023-09-19T00:03:37;17.60;99.90
25550;DHT22;13444;50.562;7.262;2023-09-19T00:06:03;17.60;99.90
25550;DHT22;13444;50.562;7.262;2023-09-19T00:08:30;17.50;99.90
25550;DHT22;13444;50.562;7.262;2023-09-19T00:10:56;17.50;99.90
25550;DHT22;13444;50.562;7.262;2023-09-19T00:13:22;17.40;99.90
25550;DHT22;13444;50.562;7.262;2023-09-19T00:15:50;17.40;99.90
25550;DHT22;13444;50.562;7.262;2023-09-19T00:18:19;17.30;99.90
25550;DHT22;13444;50.562;7.262;2023-09-19T00:20:49;17.30;99.90
25550;DHT22;13444;50.562;7.262;2023-09-19T00:23:15;17.20;99.90
25550;DHT22;13444;50.562;7.262;2023-09-19T00:25:40;17.20;99.90
25550;DHT22;13444;50.562;7.262;2023-09-19T00:28:07;17.10;99.90
25550;DHT22;13444;50.562;7.262;2023-09-19T00:30:34;17.10;99.90
25550;DHT22;13444;50.562;7.262;2023-09-19T00:33:00;17.00;99.90
25550;DHT22;13444;50.562;7.262;2023-09-19T00:35:27;17.00;99.90
25550;DHT22;13444;50.562;7.262;2023-09-19T00:37:53;16.90;99.90
25550;DHT22;13444;50.562;7.262;2023-09-19T00:40:19;16.90;99.90
25550;DHT22;13444;50.562;7.262;2023-09-19T00:42:47;16.80;99.90
25550;DHT22;13444;50.562;7.262;2023-09-19T00:45:15;16.70;99.90
25550;DHT22;13444;50.562;7.262;2023-09-19T00:47:46;16.70;99.90
25550;DHT22;13444;50.562;7.262;2023-09-19T00:50:19;16.70;99.90
25550;DHT22;13444;50.562;7.262;2023-09-19T00:52:48;16.70;99.90
25550;DHT22;13444;50.562;7.262;2023-09-19T00:55:15;16.60;99.90
25550;DHT22;13444;50.562;7.262;2023-09-19T00:57:41;16.60;99.90
25550;DHT22;13444;50.562;7.262;2023-09-19T01:00:08;16.60;99.90
25550;DHT22;13444;50.562;7.262;2023-09-19T01:02:37;16.50;99.90
25550;DHT22;13444;50.562;7.262;2023-09-19T01:05:03;16.50;99.90
25550;DHT22;13444;50.562;7.262;2023-09-19T01:07:31;16.40;99.90
25550;DHT22;13444;50.562;7.262;2023-09-19T01:10:03;16.40;99.90
25550;DHT22;13444;50.562;7.262;2023-09-19T01:12:47;16.40;99.90
25550;DHT22;13444;50.562;7.262;2023-09-19T01:17:57;16.40;99.90
25550;DHT22;13444;50.562;7.262;2023-09-19T01:20:27;16.40;99.90
25550;DHT22;13444;50.562;7.262;2023-09-19T01:25:51;16.40;99.90
25550;DHT22;13444;50.562;7.262;2023-09-19T01:28:29;16.40;99.90
25550;DHT22;13444;50.562;7.262;2023-09-19T01:30:59;16.40;99.90
25550;DHT22;13444;50.562;7.262;2023-09-19T01:33:26;16.40;99.90
25550;DHT22;13444;50.562;7.262;2023-09-19T01:35:52;16.40;99.90
25550;DHT22;13444;50.562;7.262;2023-09-19T01:38:19;16.40;99.90
25550;DHT22;13444;50.562;7.262;2023-09-19T01:40:57;16.40;99.90
25550;DHT22;13444;50.562;7.262;2023-09-19T01:43:30;16.50;99.90
25550;DHT22;13444;50.562;7.262;2023-09-19T01:46:16;16.50;99.90
25550;DHT22;13444;50.562;7.262;2023-09-19T01:51:37;16.50;99.90
25550;DHT22;13444;50.562;7.262;2023-09-19T01:54:09;16.60;99.90
25550;DHT22;13444;50.562;7.262;2023-09-19T01:56:53;16.60;99.90
25550;DHT22;13444;50.562;7.262;2023-09-19T01:59:30;16.50;99.90
25550;DHT22;13444;50.562;7.262;2023-09-19T02:01:58;16.50;99.90
25550;DHT22;13444;50.562;7.262;2023-09-19T02:04:23;16.40;99.90
25550;DHT22;13444;50.562;7.262;2023-09-19T02:06:49;16.40;99.90
25550;DHT22;13444;50.562;7.262;2023-09-19T02:09:15;16.30;99.90
25550;DHT22;13444;50.562;7.262;2023-09-19T02:11:40;16.30;99.90
25550;DHT22;13444;50.562;7.262;2023-09-19T02:14:07;16.30;99.90
25550;DHT22;13444;50.562;7.262;2023-09-19T02:16:36;16.30;99.90
25550;DHT22;13444;50.562;7.262;2023-09-19T02:19:02;16.40;99.90
25550;DHT22;13444;50.562;7.262;2023-09-19T02:21:31;16.40;99.90
25550;DHT22;13444;50.562;7.262;2023-09-19T02:23:57;16.30;99.90
25550;DHT22;13444;50.562;7.262;2023-09-19T02:26:23;16.30;99.90
25550;DHT22;13444;50.562;7.262;2023-09-19T02:28:49;16.40;99.90
25550;DHT22;13444;50.562;7.262;2023-09-19T02:31:14;16.40;99.90
25550;DHT22;13444;50.562;7.262;2023-09-19T02:33:42;16.40;99.90
25550;DHT22;13444;50.562;7.262;2023-09-19T02:36:07;16.40;99.90
25550;DHT22;13444;50.562;7.262;2023-09-19T02:38:34;16.40;99.90
25550;DHT22;13444;50.562;7.262;2023-09-19T02:40:59;16.40;99.90
25550;DHT22;13444;50.562;7.262;2023-09-19T02:43:25;16.40;99.90
25550;DHT22;13444;50.562;7.262;2023-09-19T02:45:51;16.40;99.90
25550;DHT22;13444;50.562;7.262;2023-09-19T02:48:18;16.40;99.90
25550;DHT22;13444;50.562;7.262;2023-09-19T02:50:44;16.40;99.90
25550;DHT22;13444;50.562;7.262;2023-09-19T02:53:10;16.40;99.90
25550;DHT22;13444;50.562;7.262;2023-09-19T02:55:38;16.50;99.90
25550;DHT22;13444;50.562;7.262;2023-09-19T02:58:06;16.40;99.90
25550;DHT22;13444;50.562;7.262;2023-09-19T03:00:40;16.40;99.90
25550;DHT22;13444;50.562;7.262;2023-09-19T03:03:07;16.40;99.90
25550;DHT22;13444;50.562;7.262;2023-09-19T03:05:34;16.40;99.90
25550;DHT22;13444;50.562;7.262;2023-09-19T03:08:00;16.30;99.90
25550;DHT22;13444;50.562;7.262;2023-09-19T03:10:29;16.30;99.90
25550;DHT22;13444;50.562;7.262;2023-09-19T03:12:56;16.30;99.90
25550;DHT22;13444;50.562;7.262;2023-09-19T03:15:22;16.30;99.90
25550;DHT22;13444;50.562;7.262;2023-09-19T03:17:48;16.30;99.90
25550;DHT22;13444;50.562;7.262;2023-09-19T03:20:15;16.30;99.90
25550;DHT22;13444;50.562;7.262;2023-09-19T03:22:45;16.30;99.90
25550;DHT22;13444;50.562;7.262;2023-09-19T03:25:11;16.20;99.90
25550;DHT22;13444;50.562;7.262;2023-09-19T03:27:38;16.20;99.90
25550;DHT22;13444;50.562;7.262;2023-09-19T03:30:05;16.10;99.90
25550;DHT22;13444;50.562;7.262;2023-09-19T03:32:36;16.10;99.90
25550;DHT22;13444;50.562;7.262;2023-09-19T03:35:03;16.00;99.90
25550;DHT22;13444;50.562;7.262;2023-09-19T03:37:32;15.90;99.90
25550;DHT22;13444;50.562;7.262;2023-09-19T03:40:00;15.80;99.90
25550;DHT22;13444;50.562;7.262;2023-09-19T03:42:30;15.80;99.90
25550;DHT22;13444;50.562;7.262;2023-09-19T03:44:56;15.80;99.90
25550;DHT22;13444;50.562;7.262;2023-09-19T03:47:22;15.80;99.90
25550;DHT22;13444;50.562;7.262;2023-09-19T03:49:47;15.70;99.90
25550;DHT22;13444;50.562;7.262;2023-09-19T03:52:13;15.60;99.90
25550;DHT22;13444;50.562;7.262;2023-09-19T03:54:40;15.50;99.90
25550;DHT22;13444;50.562;7.262;2023-09-19T03:57:06;15.50;99.90
25550;DHT22;13444;50.562;7.262;2023-09-19T03:59:32;15.50;99.90
25550;DHT22;13444;50.562;7.262;2023-09-19T04:01:58;15.50;99.90
25550;DHT22;13444;50.562;7.262;2023-09-19T04:04:24;15.50;99.90
25550;DHT22;13444;50.562;7.262;2023-09-19T04:06:51;15.50;99.90
25550;DHT22;13444;50.562;7.262;2023-09-19T04:09:16;15.40;99.90
25550;DHT22;13444;50.562;7.262;2023-09-19T04:11:42;15.40;99.90
25550;DHT22;13444;50.562;7.262;2023-09-19T04:14:07;15.40;99.90
25550;DHT22;13444;50.562;7.262;2023-09-19T04:16:33;15.40;99.90
25550;DHT22;13444;50.562;7.262;2023-09-19T04:18:59;15.40;99.90
25550;DHT22;13444;50.562;7.262;2023-09-19T04:21:24;15.40;99.90
25550;DHT22;13444;50.562;7.262;2023-09-19T04:23:50;15.40;99.90
25550;DHT22;13444;50.562;7.262;2023-09-19T04:26:16;15.40;99.90
25550;DHT22;13444;50.562;7.262;2023-09-19T04:28:41;15.40;99.90
25550;DHT22;13444;50.562;7.262;2023-09-19T04:31:09;15.30;99.90
25550;DHT22;13444;50.562;7.262;2023-09-19T04:33:35;15.20;99.90
25550;DHT22;13444;50.562;7.262;2023-09-19T04:36:02;15.30;99.90
25550;DHT22;13444;50.562;7.262;2023-09-19T04:38:28;15.20;99.90
25550;DHT22;13444;50.562;7.262;2023-09-19T04:40:57;15.20;99.90
25550;DHT22;13444;50.562;7.262;2023-09-19T04:43:23;15.20;99.90
25550;DHT22;13444;50.562;7.262;2023-09-19T04:45:49;15.20;99.90
25550;DHT22;13444;50.562;7.262;2023-09-19T04:48:16;15.30;99.90
25550;DHT22;13444;50.562;7.262;2023-09-19T04:50:41;15.20;99.90
25550;DHT22;13444;50.562;7.262;2023-09-19T04:53:08;15.20;99.90
25550;DHT22;13444;50.562;7.262;2023-09-19T04:55:33;15.20;99.90
25550;DHT22;13444;50.562;7.262;2023-09-19T04:57:59;15.20;99.90
25550;DHT22;13444;50.562;7.262;2023-09-19T05:00:24;15.30;99.90
25550;DHT22;13444;50.562;7.262;2023-09-19T05:02:55;15.30;99.90
25550;DHT22;13444;50.562;7.262;2023-09-19T05:05:24;15.30;99.90
25550;DHT22;13444;50.562;7.262;2023-09-19T05:07:51;15.30;99.90
25550;DHT22;13444;50.562;7.262;2023-09-19T05:10:18;15.20;99.90
25550;DHT22;13444;50.562;7.262;2023-09-19T05:12:44;15.20;99.90
25550;DHT22;13444;50.562;7.262;2023-09-19T05:15:14;15.20;99.90
25550;DHT22;13444;50.562;7.262;2023-09-19T05:17:51;15.10;99.90
25550;DHT22;13444;50.562;7.262;2023-09-19T05:20:17;15.10;99.90
25550;DHT22;13444;50.562;7.262;2023-09-19T05:22:57;15.10;99.90
25550;DHT22;13444;50.562;7.262;2023-09-19T05:25:23;15.10;99.90
25550;DHT22;13444;50.562;7.262;2023-09-19T05:27:53;15.10;99.90
25550;DHT22;13444;50.562;7.262;2023-09-19T05:30:18;15.10;99.90
25550;DHT22;13444;50.562;7.262;2023-09-19T05:32:45;15.10;99.90
25550;DHT22;13444;50.562;7.262;2023-09-19T05:35:11;15.10;99.90
25550;DHT22;13444;50.562;7.262;2023-09-19T05:37:38;15.10;99.90
25550;DHT22;13444;50.562;7.262;2023-09-19T05:40:05;15.20;99.90
25550;DHT22;13444;50.562;7.262;2023-09-19T05:42:34;15.20;99.90
25550;DHT22;13444;50.562;7.262;2023-09-19T05:45:00;15.20;99.90
25550;DHT22;13444;50.562;7.262;2023-09-19T05:47:25;15.30;99.90
25550;DHT22;13444;50.562;7.262;2023-09-19T05:49:51;15.30;99.90
25550;DHT22;13444;50.562;7.262;2023-09-19T05:52:17;15.40;99.90
25550;DHT22;13444;50.562;7.262;2023-09-19T05:54:43;15.40;99.90
25550;DHT22;13444;50.562;7.262;2023-09-19T05:57:09;15.40;99.90
25550;DHT22;13444;50.562;7.262;2023-09-19T05:59:37;15.40;99.90
25550;DHT22;13444;50.562;7.262;2023-09-19T06:02:05;15.40;99.90
25550;DHT22;13444;50.562;7.262;2023-09-19T06:04:31;15.50;99.90
25550;DHT22;13444;50.562;7.262;2023-09-19T06:06:57;15.50;99.90
25550;DHT22;13444;50.562;7.262;2023-09-19T06:09:23;15.40;99.90
25550;DHT22;13444;50.562;7.262;2023-09-19T06:11:49;15.40;99.90
25550;DHT22;13444;50.562;7.262;2023-09-19T06:14:14;15.40;99.90
25550;DHT22;13444;50.562;7.262;2023-09-19T06:16:43;15.40;99.90
25550;DHT22;13444;50.562;7.262;2023-09-19T06:19:08;15.40;99.90
25550;DHT22;13444;50.562;7.262;2023-09-19T06:21:35;15.40;99.90
25550;DHT22;13444;50.562;7.262;2023-09-19T06:24:02;15.30;99.90
25550;DHT22;13444;50.562;7.262;2023-09-19T06:26:28;15.40;99.90
25550;DHT22;13444;50.562;7.262;2023-09-19T06:28:54;15.40;99.90
25550;DHT22;13444;50.562;7.262;2023-09-19T06:31:21;15.50;99.90
25550;DHT22;13444;50.562;7.262;2023-09-19T06:33:48;15.50;99.90
25550;DHT22;13444;50.562;7.262;2023-09-19T06:36:13;15.50;99.90
25550;DHT22;13444;50.562;7.262;2023-09-19T06:38:40;15.60;99.90
25550;DHT22;13444;50.562;7.262;2023-09-19T06:41:06;15.60;99.90
25550;DHT22;13444;50.562;7.262;2023-09-19T06:43:34;15.50;99.90
25550;DHT22;13444;50.562;7.262;2023-09-19T06:46:02;15.60;99.90
25550;DHT22;13444;50.562;7.262;2023-09-19T06:48:29;15.60;99.90
25550;DHT22;13444;50.562;7.262;2023-09-19T06:50:55;15.60;99.90
25550;DHT22;13444;50.562;7.262;2023-09-19T06:53:21;15.60;99.90
25550;DHT22;13444;50.562;7.262;2023-09-19T06:55:50;15.60;99.90
25550;DHT22;13444;50.562;7.262;2023-09-19T06:58:15;15.60;99.90
25550;DHT22;13444;50.562;7.262;2023-09-19T07:00:42;15.60;99.90
25550;DHT22;13444;50.562;7.262;2023-09-19T07:03:08;15.70;99.90
25550;DHT22;13444;50.562;7.262;2023-09-19T07:05:37;15.70;99.90
25550;DHT22;13444;50.562;7.262;2023-09-19T07:08:04;15.80;99.90
25550;DHT22;13444;50.562;7.262;2023-09-19T07:10:31;15.80;99.90
25550;DHT22;13444;50.562;7.262;2023-09-19T07:13:02;15.90;99.90
25550;DHT22;13444;50.562;7.262;2023-09-19T07:15:29;15.90;99.90
25550;DHT22;13444;50.562;7.262;2023-09-19T07:17:56;16.00;99.90
25550;DHT22;13444;50.562;7.262;2023-09-19T07:20:23;16.10;99.90
25550;DHT22;13444;50.562;7.262;2023-09-19T07:22:52;16.20;99.90
25550;DHT22;13444;50.562;7.262;2023-09-19T07:25:17;16.30;99.90
25550;DHT22;13444;50.562;7.262;2023-09-19T07:27:43;16.40;99.90
25550;DHT22;13444;50.562;7.262;2023-09-19T07:30:10;16.40;99.90
25550;DHT22;13444;50.562;7.262;2023-09-19T07:32:37;16.50;99.90
25550;DHT22;13444;50.562;7.262;2023-09-19T07:35:04;16.60;99.90
25550;DHT22;13444;50.562;7.262;2023-09-19T07:37:31;16.50;99.70
25550;DHT22;13444;50.562;7.262;2023-09-19T07:39:59;16.50;96.20
25550;DHT22;13444;50.562;7.262;2023-09-19T07:42:24;16.50;94.40
25550;DHT22;13444;50.562;7.262;2023-09-19T07:44:51;16.50;96.60
25550;DHT22;13444;50.562;7.262;2023-09-19T07:47:16;16.60;98.90
25550;DHT22;13444;50.562;7.262;2023-09-19T07:49:42;16.70;95.70
25550;DHT22;13444;50.562;7.262;2023-09-19T07:52:09;16.70;95.50
25550;DHT22;13444;50.562;7.262;2023-09-19T07:54:35;16.90;91.10
25550;DHT22;13444;50.562;7.262;2023-09-19T07:57:02;17.00;84.90
25550;DHT22;13444;50.562;7.262;2023-09-19T07:59:27;17.10;86.40
25550;DHT22;13444;50.562;7.262;2023-09-19T08:01:53;17.20;77.10
25550;DHT22;13444;50.562;7.262;2023-09-19T08:04:19;17.20;76.20
25550;DHT22;13444;50.562;7.262;2023-09-19T08:06:45;17.30;75.00
25550;DHT22;13444;50.562;7.262;2023-09-19T08:09:11;17.30;72.20
25550;DHT22;13444;50.562;7.262;2023-09-19T08:11:37;17.40;76.00
25550;DHT22;13444;50.562;7.262;2023-09-19T08:14:04;17.40;61.20
25550;DHT22;13444;50.562;7.262;2023-09-19T08:16:31;17.50;65.90
25550;DHT22;13444;50.562;7.262;2023-09-19T08:18:57;17.60;71.60
25550;DHT22;13444;50.562;7.262;2023-09-19T08:21:23;17.60;59.20
25550;DHT22;13444;50.562;7.262;2023-09-19T08:23:50;17.60;59.20
25550;DHT22;13444;50.562;7.262;2023-09-19T08:26:15;17.70;60.40
25550;DHT22;13444;50.562;7.262;2023-09-19T08:28:41;17.70;51.60
25550;DHT22;13444;50.562;7.262;2023-09-19T08:31:07;17.80;56.10
25550;DHT22;13444;50.562;7.262;2023-09-19T08:33:37;17.90;55.80
25550;DHT22;13444;50.562;7.262;2023-09-19T08:36:04;18.00;47.70
25550;DHT22;13444;50.562;7.262;2023-09-19T08:38:31;18.10;42.20
25550;DHT22;13444;50.562;7.262;2023-09-19T08:41:00;18.00;39.20
25550;DHT22;13444;50.562;7.262;2023-09-19T08:43:26;18.00;43.70
25550;DHT22;13444;50.562;7.262;2023-09-19T08:46:12;18.10;44.80
25550;DHT22;13444;50.562;7.262;2023-09-19T08:48:46;18.30;41.60
25550;DHT22;13444;50.562;7.262;2023-09-19T08:51:28;18.40;37.00
25550;DHT22;13444;50.562;7.262;2023-09-19T08:54:07;18.60;27.70
25550;DHT22;13444;50.562;7.262;2023-09-19T08:56:33;18.60;27.20
25550;DHT22;13444;50.562;7.262;2023-09-19T08:59:06;18.80;1.00
25550;DHT22;13444;50.562;7.262;2023-09-19T09:01:35;19.00;1.00
25550;DHT22;13444;50.562;7.262;2023-09-19T09:04:01;19.00;1.00
25550;DHT22;13444;50.562;7.262;2023-09-19T09:06:27;18.90;1.00
25550;DHT22;13444;50.562;7.262;2023-09-19T09:08:54;18.90;1.00
25550;DHT22;13444;50.562;7.262;2023-09-19T09:11:20;18.90;1.00
25550;DHT22;13444;50.562;7.262;2023-09-19T09:13:47;19.10;1.00
25550;DHT22;13444;50.562;7.262;2023-09-19T09:16:13;19.10;1.00
25550;DHT22;13444;50.562;7.262;2023-09-19T09:18:39;19.30;1.00
25550;DHT22;13444;50.562;7.262;2023-09-19T09:21:06;19.40;1.00
25550;DHT22;13444;50.562;7.262;2023-09-19T09:23:31;19.50;1.00
25550;DHT22;13444;50.562;7.262;2023-09-19T09:25:58;19.60;1.00
25550;DHT22;13444;50.562;7.262;2023-09-19T09:28:26;19.70;1.00
25550;DHT22;13444;50.562;7.262;2023-09-19T09:30:52;19.70;1.00
25550;DHT22;13444;50.562;7.262;2023-09-19T09:33:18;19.60;1.00
25550;DHT22;13444;50.562;7.262;2023-09-19T09:35:52;19.60;1.00
25550;DHT22;13444;50.562;7.262;2023-09-19T09:38:22;19.70;1.00
25550;DHT22;13444;50.562;7.262;2023-09-19T09:40:54;19.80;1.00
25550;DHT22;13444;50.562;7.262;2023-09-19T09:43:36;19.80;1.00
25550;DHT22;13444;50.562;7.262;2023-09-19T09:46:14;19.90;1.00
25550;DHT22;13444;50.562;7.262;2023-09-19T09:48:57;19.80;1.00
25550;DHT22;13444;50.562;7.262;2023-09-19T09:51:42;19.90;1.00
25550;DHT22;13444;50.562;7.262;2023-09-19T09:54:18;20.10;1.00
25550;DHT22;13444;50.562;7.262;2023-09-19T09:56:59;20.40;1.00
25550;DHT22;13444;50.562;7.262;2023-09-19T09:59:48;20.80;1.00
25550;DHT22;13444;50.562;7.262;2023-09-19T10:02:26;20.90;1.00
25550;DHT22;13444;50.562;7.262;2023-09-19T10:04:58;21.00;1.00
25550;DHT22;13444;50.562;7.262;2023-09-19T10:07:39;20.90;1.00
25550;DHT22;13444;50.562;7.262;2023-09-19T10:10:08;20.60;99.90
25550;DHT22;13444;50.562;7.262;2023-09-19T10:12:48;20.60;1.00
25550;DHT22;13444;50.562;7.262;2023-09-19T10:15:18;20.80;99.90
25550;DHT22;13444;50.562;7.262;2023-09-19T10:17:46;20.90;99.90
25550;DHT22;13444;50.562;7.262;2023-09-19T10:20:18;21.00;2.90
25550;DHT22;13444;50.562;7.262;2023-09-19T10:23:10;21.10;50.50
25550;DHT22;13444;50.562;7.262;2023-09-19T10:25:38;21.30;1.00
25550;DHT22;13444;50.562;7.262;2023-09-19T10:28:15;21.30;1.00
25550;DHT22;13444;50.562;7.262;2023-09-19T10:30:43;21.60;1.00
25550;DHT22;13444;50.562;7.262;2023-09-19T10:33:11;21.90;99.90
25550;DHT22;13444;50.562;7.262;2023-09-19T10:35:39;22.20;99.90
25550;DHT22;13444;50.562;7.262;2023-09-19T10:38:06;22.20;99.90
25550;DHT22;13444;50.562;7.262;2023-09-19T10:40:33;22.00;1.00
25550;DHT22;13444;50.562;7.262;2023-09-19T10:43:03;21.80;99.90
25550;DHT22;13444;50.562;7.262;2023-09-19T10:45:31;21.70;1.00
25550;DHT22;13444;50.562;7.262;2023-09-19T10:47:58;21.80;1.00
25550;DHT22;13444;50.562;7.262;2023-09-19T10:50:24;21.80;1.00
25550;DHT22;13444;50.562;7.262;2023-09-19T10:52:53;21.90;1.00
25550;DHT22;13444;50.562;7.262;2023-09-19T10:55:31;22.10;1.00
25550;DHT22;13444;50.562;7.262;2023-09-19T10:57:58;22.20;1.00
25550;DHT22;13444;50.562;7.262;2023-09-19T11:00:53;22.00;1.00
25550;DHT22;13444;50.562;7.262;2023-09-19T11:03:20;22.30;99.90
25550;DHT22;13444;50.562;7.262;2023-09-19T11:06:05;22.30;1.00
25550;DHT22;13444;50.562;7.262;2023-09-19T11:30:42;22.60;99.90
25550;DHT22;13444;50.562;7.262;2023-09-19T11:36:12;22.50;1.00
25550;DHT22;13444;50.562;7.262;2023-09-19T11:46:33;22.70;1.00
25550;DHT22;13444;50.562;7.262;2023-09-19T11:49:06;22.70;1.00
25550;DHT22;13444;50.562;7.262;2023-09-19T11:51:42;22.80;1.00
25550;DHT22;13444;50.562;7.262;2023-09-19T11:54:13;22.90;99.90
25550;DHT22;13444;50.562;7.262;2023-09-19T11:56:49;22.90;1.00
25550;DHT22;13444;50.562;7.262;2023-09-19T11:59:30;22.50;1.00
25550;DHT22;13444;50.562;7.262;2023-09-19T12:07:14;22.70;1.00
25550;DHT22;13444;50.562;7.262;2023-09-19T12:09:45;22.60;99.90
25550;DHT22;13444;50.562;7.262;2023-09-19T12:12:28;22.50;99.90
25550;DHT22;13444;50.562;7.262;2023-09-19T12:14:54;22.40;1.00
25550;DHT22;13444;50.562;7.262;2023-09-19T12:17:20;22.40;1.00
25550;DHT22;13444;50.562;7.262;2023-09-19T12:19:53;22.30;99.90
25550;DHT22;13444;50.562;7.262;2023-09-19T12:22:19;22.50;99.90
25550;DHT22;13444;50.562;7.262;2023-09-19T12:24:46;22.50;1.00
25550;DHT22;13444;50.562;7.262;2023-09-19T12:27:12;22.60;1.00
25550;DHT22;13444;50.562;7.262;2023-09-19T12:29:48;22.80;99.90
25550;DHT22;13444;50.562;7.262;2023-09-19T12:32:14;23.00;1.00
25550;DHT22;13444;50.562;7.262;2023-09-19T12:34:42;23.10;1.00
25550;DHT22;13444;50.562;7.262;2023-09-19T12:39:45;23.30;1.00
25550;DHT22;13444;50.562;7.262;2023-09-19T12:42:23;23.40;1.00
25550;DHT22;13444;50.562;7.262;2023-09-19T12:44:51;23.30;99.90
25550;DHT22;13444;50.562;7.262;2023-09-19T12:47:21;23.30;1.00
25550;DHT22;13444;50.562;7.262;2023-09-19T12:50:18;23.50;1.00
25550;DHT22;13444;50.562;7.262;2023-09-19T12:52:51;23.60;1.00
25550;DHT22;13444;50.562;7.262;2023-09-19T12:55:29;23.60;1.00
25550;DHT22;13444;50.562;7.262;2023-09-19T12:58:13;23.60;99.90
25550;DHT22;13444;50.562;7.262;2023-09-19T13:00:45;23.60;99.90
25550;DHT22;13444;50.562;7.262;2023-09-19T13:06:03;23.60;99.90
25550;DHT22;13444;50.562;7.262;2023-09-19T13:08:35;23.20;1.00
25550;DHT22;13444;50.562;7.262;2023-09-19T13:11:14;23.10;99.90
25550;DHT22;13444;50.562;7.262;2023-09-19T13:13:43;22.80;1.00
25550;DHT22;13444;50.562;7.262;2023-09-19T13:16:10;22.70;1.00
25550;DHT22;13444;50.562;7.262;2023-09-19T13:18:43;22.70;1.00
25550;DHT22;13444;50.562;7.262;2023-09-19T13:21:11;22.70;99.90
25550;DHT22;13444;50.562;7.262;2023-09-19T13:24:23;22.60;99.90
25550;DHT22;13444;50.562;7.262;2023-09-19T13:26:51;22.60;1.00
25550;DHT22;13444;50.562;7.262;2023-09-19T13:29:16;22.70;1.00
25550;DHT22;13444;50.562;7.262;2023-09-19T13:31:50;22.60;1.00
25550;DHT22;13444;50.562;7.262;2023-09-19T13:34:21;22.60;71.70
25550;DHT22;13444;50.562;7.262;2023-09-19T13:36:47;22.60;1.00
25550;DHT22;13444;50.562;7.262;2023-09-19T13:39:18;22.80;1.00
25550;DHT22;13444;50.562;7.262;2023-09-19T13:41:45;22.80;1.00
25550;DHT22;13444;50.562;7.262;2023-09-19T13:44:11;22.80;1.00
25550;DHT22;13444;50.562;7.262;2023-09-19T13:46:37;22.80;1.00
25550;DHT22;13444;50.562;7.262;2023-09-19T13:49:03;22.80;1.00
25550;DHT22;13444;50.562;7.262;2023-09-19T13:51:32;22.70;1.00
25550;DHT22;13444;50.562;7.262;2023-09-19T13:53:58;22.40;1.00
25550;DHT22;13444;50.562;7.262;2023-09-19T13:56:26;22.20;1.00
25550;DHT22;13444;50.562;7.262;2023-09-19T13:58:54;22.10;1.00
25550;DHT22;13444;50.562;7.262;2023-09-19T14:01:19;22.00;1.00
25550;DHT22;13444;50.562;7.262;2023-09-19T14:03:45;22.00;1.00
25550;DHT22;13444;50.562;7.262;2023-09-19T14:06:15;22.10;1.00
25550;DHT22;13444;50.562;7.262;2023-09-19T14:08:41;22.10;1.00
25550;DHT22;13444;50.562;7.262;2023-09-19T14:11:07;22.10;99.90
25550;DHT22;13444;50.562;7.262;2023-09-19T14:13:33;22.10;99.90
25550;DHT22;13444;50.562;7.262;2023-09-19T14:16:06;22.10;1.00
25550;DHT22;13444;50.562;7.262;2023-09-19T14:18:34;22.10;1.00
25550;DHT22;13444;50.562;7.262;2023-09-19T14:21:03;22.00;1.00
25550;DHT22;13444;50.562;7.262;2023-09-19T14:23:33;22.00;1.00
25550;DHT22;13444;50.562;7.262;2023-09-19T14:26:01;22.10;99.90
25550;DHT22;13444;50.562;7.262;2023-09-19T14:28:26;22.20;1.00
25550;DHT22;13444;50.562;7.262;2023-09-19T14:30:52;22.20;1.00
25550;DHT22;13444;50.562;7.262;2023-09-19T14:33:17;22.10;99.90
25550;DHT22;13444;50.562;7.262;2023-09-19T14:35:43;22.00;1.00
25550;DHT22;13444;50.562;7.262;2023-09-19T14:38:08;21.90;99.90
25550;DHT22;13444;50.562;7.262;2023-09-19T14:40:34;22.00;99.90
25550;DHT22;13444;50.562;7.262;2023-09-19T14:43:01;22.00;99.90
25550;DHT22;13444;50.562;7.262;2023-09-19T14:45:27;22.10;1.00
25550;DHT22;13444;50.562;7.262;2023-09-19T14:47:53;22.10;75.50
25550;DHT22;13444;50.562;7.262;2023-09-19T14:50:21;22.10;99.90
25550;DHT22;13444;50.562;7.262;2023-09-19T14:52:47;22.10;1.00
25550;DHT22;13444;50.562;7.262;2023-09-19T14:55:14;22.10;99.90
25550;DHT22;13444;50.562;7.262;2023-09-19T14:57:41;22.10;57.10
25550;DHT22;13444;50.562;7.262;2023-09-19T15:00:08;22.10;99.90
25550;DHT22;13444;50.562;7.262;2023-09-19T15:02:38;22.10;1.00
25550;DHT22;13444;50.562;7.262;2023-09-19T15:05:05;22.10;1.00
25550;DHT22;13444;50.562;7.262;2023-09-19T15:07:34;22.10;1.00
25550;DHT22;13444;50.562;7.262;2023-09-19T15:10:02;22.00;99.90
25550;DHT22;13444;50.562;7.262;2023-09-19T15:12:27;22.10;1.00
25550;DHT22;13444;50.562;7.262;2023-09-19T15:14:54;22.20;1.00
25550;DHT22;13444;50.562;7.262;2023-09-19T15:17:20;22.20;99.90
25550;DHT22;13444;50.562;7.262;2023-09-19T15:19:46;22.10;99.90
25550;DHT22;13444;50.562;7.262;2023-09-19T15:22:11;22.00;1.00
25550;DHT22;13444;50.562;7.262;2023-09-19T15:24:38;22.00;1.00
25550;DHT22;13444;50.562;7.262;2023-09-19T15:27:04;22.00;99.90
25550;DHT22;13444;50.562;7.262;2023-09-19T15:29:29;22.00;99.90
25550;DHT22;13444;50.562;7.262;2023-09-19T15:31:55;21.80;99.90
25550;DHT22;13444;50.562;7.262;2023-09-19T15:34:24;21.80;1.00
25550;DHT22;13444;50.562;7.262;2023-09-19T15:36:50;21.80;1.00
25550;DHT22;13444;50.562;7.262;2023-09-19T15:39:16;21.90;1.00
25550;DHT22;13444;50.562;7.262;2023-09-19T15:41:45;21.90;99.90
25550;DHT22;13444;50.562;7.262;2023-09-19T15:44:12;21.80;1.00
25550;DHT22;13444;50.562;7.262;2023-09-19T15:46:38;21.60;99.90
25550;DHT22;13444;50.562;7.262;2023-09-19T15:49:04;21.50;1.00
25550;DHT22;13444;50.562;7.262;2023-09-19T15:51:30;21.40;99.90
25550;DHT22;13444;50.562;7.262;2023-09-19T15:53:56;21.40;1.00
25550;DHT22;13444;50.562;7.262;2023-09-19T15:56:23;21.40;1.00
25550;DHT22;13444;50.562;7.262;2023-09-19T15:58:51;21.30;1.00
25550;DHT22;13444;50.562;7.262;2023-09-19T16:01:17;21.20;1.00
25550;DHT22;13444;50.562;7.262;2023-09-19T16:03:47;21.20;1.00
25550;DHT22;13444;50.562;7.262;2023-09-19T16:06:15;21.30;99.90
25550;DHT22;13444;50.562;7.262;2023-09-19T16:08:42;21.40;1.00
25550;DHT22;13444;50.562;7.262;2023-09-19T16:11:08;21.50;99.90
25550;DHT22;13444;50.562;7.262;2023-09-19T16:13:38;21.40;1.00
25550;DHT22;13444;50.562;7.262;2023-09-19T16:16:07;21.40;1.00
25550;DHT22;13444;50.562;7.262;2023-09-19T16:18:33;21.40;1.00
25550;DHT22;13444;50.562;7.262;2023-09-19T16:21:03;21.40;1.00
25550;DHT22;13444;50.562;7.262;2023-09-19T16:23:29;21.30;1.00
25550;DHT22;13444;50.562;7.262;2023-09-19T16:26:05;21.20;1.00
25550;DHT22;13444;50.562;7.262;2023-09-19T16:28:32;21.20;1.00
25550;DHT22;13444;50.562;7.262;2023-09-19T16:31:02;21.10;1.00
25550;DHT22;13444;50.562;7.262;2023-09-19T16:33:32;21.00;1.00
25550;DHT22;13444;50.562;7.262;2023-09-19T16:35:58;21.10;1.00